Time;durP1;ratioP1;P1;durP2;ratioP2;P2;SDS_P1;SDS_P2;PMS_P1;PMS_P2;Temp;Humidity;BMP_temperature;BMP_pressure;BME280_temperature;BME280_humidity;BME280_pressure;Samples;Min_cycle;Max_cycle;Signal;HPM_P1;HPM_P2
2023/07/21 00:02:01;;;;;;;2.20;1.53;;;;;;;;;;5034987;28;20212;-72
2023/07/21 00:05:06;;;;;;;1.67;1.53;;;;;;;;;;5035014;28;20648;-71
2023/07/21 00:08:10;;;;;;;2.83;1.63;;;;;;;;;;5034996;28;20176;-71
2023/07/21 00:11:14;;;;;;;2.83;1.87;;;;;;;;;;5034806;28;20712;-72
2023/07/21 00:14:19;;;;;;;2.73;2.03;;;;;;;;;;5034827;28;20204;-72
2023/07/21 00:17:24;;;;;;;7.00;1.80;;;;;;;;;;5034738;28;20200;-71
2023/07/21 00:20:29;;;;;;;2.33;1.63;;;;;;;;;;5034711;28;20201;-71
2023/07/21 00:23:33;;;;;;;3.10;2.07;;;;;;;;;;5034645;28;20197;-72
2023/07/21 00:26:37;;;;;;;2.53;1.97;;;;;;;;;;5034325;28;20177;-71
2023/07/21 00:29:41;;;;;;;4.67;1.83;;;;;;;;;;5034285;28;20644;-71
2023/07/21 00:32:46;;;;;;;5.23;1.70;;;;;;;;;;5022357;28;20204;-71
2023/07/21 00:35:50;;;;;;;3.53;1.70;;;;;;;;;;5034725;28;20244;-71
2023/07/21 00:38:56;;;;;;;4.87;1.80;;;;;;;;;;5022335;28;20173;-71
2023/07/21 00:42:00;;;;;;;4.47;2.17;;;;;;;;;;5034384;28;20208;-71
2023/07/21 00:45:05;;;;;;;3.43;2.13;;;;;;;;;;5033219;28;20173;-72
2023/07/21 00:48:10;;;;;;;2.63;2.00;;;;;;;;;;5033713;28;20180;-71
2023/07/21 00:51:18;;;;;;;2.73;1.80;;;;;;;;;;5033766;28;20228;-72
2023/07/21 00:54:22;;;;;;;3.67;1.87;;;;;;;;;;5033300;28;20177;-72
2023/07/21 00:57:27;;;;;;;2.93;2.00;;;;;;;;;;5033030;28;20177;-71
2023/07/21 01:00:31;;;;;;;4.07;2.00;;;;;;;;;;5033094;28;20193;-73
2023/07/21 01:03:39;;;;;;;2.57;1.87;;;;;;;;;;5032876;28;20193;-71
2023/07/21 01:06:45;;;;;;;8.73;1.77;;;;;;;;;;5033106;28;20180;-72
2023/07/21 01:09:49;;;;;;;2.00;1.80;;;;;;;;;;5033147;28;20181;-71
2023/07/21 01:12:53;;;;;;;5.43;1.90;;;;;;;;;;5033492;28;20208;-72
2023/07/21 01:15:57;;;;;;;2.50;1.60;;;;;;;;;;5021880;28;20177;-71
2023/07/21 01:19:01;;;;;;;2.90;1.90;;;;;;;;;;5021616;28;20181;-71
2023/07/21 01:22:15;;;;;;;4.23;1.97;;;;;;;;;;5033400;28;20224;-71
2023/07/21 01:25:21;;;;;;;3.23;1.97;;;;;;;;;;5043561;22;20228;-73
2023/07/21 01:28:27;;;;;;;5.43;2.00;;;;;;;;;;4990887;28;20185;-72
2023/07/21 01:31:33;;;;;;;4.30;2.07;;;;;;;;;;4990168;28;20237;-72
2023/07/21 01:34:38;;;;;;;5.13;2.10;;;;;;;;;;5001938;28;20201;-72
2023/07/21 01:37:45;;;;;;;2.73;1.80;;;;;;;;;;4990270;28;20189;-74
2023/07/21 01:40:52;;;;;;;4.43;1.73;;;;;;;;;;5013417;28;20691;-72
2023/07/21 01:43:56;;;;;;;2.07;1.60;;;;;;;;;;5001913;28;20181;-72
2023/07/21 01:47:00;;;;;;;7.43;2.10;;;;;;;;;;5001477;28;20185;-72
2023/07/21 01:50:08;;;;;;;2.77;1.80;;;;;;;;;;4990607;28;20177;-72
2023/07/21 01:53:18;;;;;;;3.90;2.13;;;;;;;;;;5001493;28;20624;-72
2023/07/21 01:56:31;;;;;;;2.77;2.00;;;;;;;;;;4990171;28;20182;-72
2023/07/21 01:59:36;;;;;;;5.30;2.07;;;;;;;;;;5001652;28;20181;-72
2023/07/21 02:02:42;;;;;;;3.47;2.10;;;;;;;;;;5003275;28;20217;-72
2023/07/21 02:05:48;;;;;;;2.33;1.90;;;;;;;;;;5005704;28;20181;-74
2023/07/21 02:08:52;;;;;;;3.00;2.00;;;;;;;;;;5005670;28;20185;-74
2023/07/21 02:11:57;;;;;;;3.70;2.20;;;;;;;;;;5017061;28;20224;-74
2023/07/21 02:15:24;;;;;;;5.30;2.10;;;;;;;;;;5005315;28;20181;-74
2023/07/21 02:18:29;;;;;;;2.53;1.90;;;;;;;;;;5004875;28;20182;-73
2023/07/21 02:21:34;;;;;;;7.20;2.40;;;;;;;;;;5004812;28;20217;-74
2023/07/21 02:24:37;;;;;;;3.57;2.20;;;;;;;;;;5016849;28;20201;-73
2023/07/21 02:27:42;;;;;;;3.13;1.80;;;;;;;;;;5005055;28;20178;-74
2023/07/21 02:30:57;;;;;;;3.37;2.00;;;;;;;;;;5004986;28;20543;-72
2023/07/21 02:34:00;;;;;;;5.77;1.93;;;;;;;;;;4993776;28;20182;-74
2023/07/21 02:37:05;;;;;;;2.67;1.93;;;;;;;;;;5005191;28;20177;-74
2023/07/21 02:40:12;;;;;;;3.63;2.10;;;;;;;;;;4993655;28;20182;-72
2023/07/21 02:43:17;;;;;;;3.47;2.20;;;;;;;;;;5005296;28;20521;-73
2023/07/21 02:46:22;;;;;;;3.37;1.90;;;;;;;;;;5017129;28;20181;-73
2023/07/21 02:49:26;;;;;;;6.47;2.27;;;;;;;;;;5016709;28;20181;-73
2023/07/21 02:52:30;;;;;;;3.20;1.97;;;;;;;;;;5016547;28;20221;-73
2023/07/21 02:55:36;;;;;;;5.50;2.60;;;;;;;;;;4993288;28;20193;-73
2023/07/21 02:58:41;;;;;;;4.27;2.40;;;;;;;;;;5016451;28;20193;-73
2023/07/21 03:01:54;;;;;;;2.43;1.87;;;;;;;;;;5004316;28;20217;-73
2023/07/21 03:05:04;;;;;;;4.17;2.13;;;;;;;;;;5004883;28;20181;-73
2023/07/21 03:08:09;;;;;;;3.93;2.13;;;;;;;;;;4993328;28;20181;-73
2023/07/21 03:11:14;;;;;;;3.03;2.13;;;;;;;;;;5015973;28;20229;-73
2023/07/21 03:14:37;;;;;;;4.60;2.20;;;;;;;;;;4992806;28;20185;-73
2023/07/21 03:17:41;;;;;;;3.13;2.20;;;;;;;;;;4992804;28;20520;-73
2023/07/21 03:20:46;;;;;;;3.17;2.03;;;;;;;;;;5004333;28;20182;-72
2023/07/21 03:23:50;;;;;;;5.10;1.87;;;;;;;;;;4981805;28;20632;-73
2023/07/21 03:27:01;;;;;;;3.07;2.27;;;;;;;;;;4992667;28;20202;-73
2023/07/21 03:30:07;;;;;;;3.63;2.20;;;;;;;;;;5004203;28;20178;-73
2023/07/21 03:33:16;;;;;;;3.43;2.37;;;;;;;;;;5003954;28;20182;-73
2023/07/21 03:36:22;;;;;;;2.07;1.80;;;;;;;;;;5003877;28;20177;-73
2023/07/21 03:39:26;;;;;;;4.73;2.13;;;;;;;;;;5015812;28;20182;-72
2023/07/21 03:42:30;;;;;;;4.50;2.27;;;;;;;;;;5003235;28;20703;-73
2023/07/21 03:45:34;;;;;;;3.13;2.00;;;;;;;;;;4992300;28;20185;-73
2023/07/21 03:48:39;;;;;;;3.13;2.00;;;;;;;;;;5003750;28;20197;-73
2023/07/21 03:51:46;;;;;;;4.50;2.40;;;;;;;;;;5003600;28;20707;-73
2023/07/21 03:54:53;;;;;;;4.30;2.50;;;;;;;;;;4992320;28;20174;-73
2023/07/21 03:57:58;;;;;;;5.37;2.50;;;;;;;;;;5003228;28;20525;-74
2023/07/21 04:01:02;;;;;;;5.03;1.93;;;;;;;;;;5003279;28;20700;-73
2023/07/21 04:04:06;;;;;;;2.87;2.30;;;;;;;;;;5015166;28;20174;-73
2023/07/21 04:07:14;;;;;;;4.50;2.40;;;;;;;;;;5003118;28;20177;-73
2023/07/21 04:10:17;;;;;;;6.03;2.70;;;;;;;;;;5002942;28;20201;-73
2023/07/21 04:13:22;;;;;;;5.30;2.73;;;;;;;;;;5002871;28;20205;-73
2023/07/21 04:16:26;;;;;;;2.63;2.30;;;;;;;;;;4980910;28;20186;-73
2023/07/21 04:19:30;;;;;;;5.17;2.30;;;;;;;;;;5014681;28;20189;-73
2023/07/21 04:22:35;;;;;;;4.10;2.27;;;;;;;;;;5002395;28;20553;-73
2023/07/21 04:25:39;;;;;;;6.57;2.60;;;;;;;;;;5001562;28;20209;-73
2023/07/21 04:28:47;;;;;;;3.77;2.07;;;;;;;;;;4980866;28;20178;-73
2023/07/21 04:31:52;;;;;;;4.07;2.60;;;;;;;;;;5002326;28;20708;-73
2023/07/21 04:34:56;;;;;;;5.60;2.50;;;;;;;;;;5003091;28;20185;-72
2023/07/21 04:38:01;;;;;;;2.90;2.20;;;;;;;;;;5002550;28;20173;-73
2023/07/21 04:41:12;;;;;;;4.13;2.57;;;;;;;;;;4991921;28;20700;-73
2023/07/21 04:44:16;;;;;;;4.23;2.40;;;;;;;;;;5002331;28;20529;-73
2023/07/21 04:47:22;;;;;;;9.13;2.80;;;;;;;;;;4991085;28;20182;-73
2023/07/21 04:50:42;;;;;;;3.80;2.50;;;;;;;;;;4992915;28;20181;-72
2023/07/21 04:53:47;;;;;;;5.80;2.90;;;;;;;;;;5002467;28;20514;-73
2023/07/21 04:56:52;;;;;;;4.93;3.03;;;;;;;;;;4991011;28;20521;-73
2023/07/21 04:59:56;;;;;;;3.70;2.90;;;;;;;;;;4991015;28;20186;-73
2023/07/21 05:03:00;;;;;;;5.23;2.80;;;;;;;;;;5002049;28;20173;-73
2023/07/21 05:06:05;;;;;;;3.73;2.67;;;;;;;;;;5001978;28;20182;-73
2023/07/21 05:09:10;;;;;;;12.47;3.10;;;;;;;;;;5001857;28;20177;-72
2023/07/21 05:12:15;;;;;;;5.00;2.80;;;;;;;;;;4990486;28;20720;-73
2023/07/21 05:15:39;;;;;;;5.10;2.67;;;;;;;;;;4994178;28;20205;-73
2023/07/21 05:19:00;;;;;;;9.30;3.10;;;;;;;;;;4993206;28;20182;-73
2023/07/21 05:22:30;;;;;;;5.43;2.70;;;;;;;;;;5013742;28;20213;-73
2023/07/21 05:25:40;;;;;;;4.10;2.70;;;;;;;;;;5013559;28;20205;-73
2023/07/21 05:28:46;;;;;;;5.57;2.90;;;;;;;;;;4979322;28;20521;-73
2023/07/21 05:31:52;;;;;;;6.27;3.00;;;;;;;;;;5008426;22;20237;-72
2023/07/21 05:35:07;;;;;;;4.63;2.80;;;;;;;;;;5001526;28;20182;-72
2023/07/21 05:38:13;;;;;;;5.47;3.20;;;;;;;;;;4990151;28;20190;-72
2023/07/21 05:41:18;;;;;;;4.47;2.70;;;;;;;;;;5001096;28;20553;-72
2023/07/21 05:44:22;;;;;;;6.20;3.60;;;;;;;;;;5001351;28;20178;-72
2023/07/21 05:47:27;;;;;;;9.63;4.73;;;;;;;;;;5001377;28;20521;-73
2023/07/21 05:50:35;;;;;;;5.40;3.23;;;;;;;;;;5000592;28;20181;-72
2023/07/21 05:53:41;;;;;;;6.30;3.10;;;;;;;;;;5000891;28;20549;-72
2023/07/21 05:56:49;;;;;;;8.00;2.80;;;;;;;;;;5000973;28;20185;-72
2023/07/21 06:00:06;;;;;;;4.13;2.70;;;;;;;;;;5000967;28;20653;-73
2023/07/21 06:03:17;;;;;;;4.73;2.90;;;;;;;;;;5012842;28;20174;-72
2023/07/21 06:06:23;;;;;;;7.20;2.40;;;;;;;;;;4989892;28;20178;-73
2023/07/21 06:09:39;;;;;;;6.33;3.27;;;;;;;;;;4979873;28;20201;-73
2023/07/21 06:13:08;;;;;;;5.20;2.70;;;;;;;;;;4989681;28;20549;-72
2023/07/21 06:16:31;;;;;;;10.43;3.90;;;;;;;;;;5003472;28;20193;-73
2023/07/21 06:19:35;;;;;;;4.90;2.30;;;;;;;;;;5000952;28;20182;-73
2023/07/21 06:22:39;;;;;;;13.73;4.33;;;;;;;;;;4989562;28;20213;-72
2023/07/21 06:25:45;;;;;;;5.00;2.30;;;;;;;;;;5000974;28;20173;-73
2023/07/21 06:28:53;;;;;;;4.97;2.30;;;;;;;;;;5000749;28;20182;-73
2023/07/21 06:31:58;;;;;;;5.97;2.40;;;;;;;;;;5000480;28;20225;-73
2023/07/21 06:35:21;;;;;;;5.87;2.30;;;;;;;;;;5012338;28;20182;-73
2023/07/21 06:38:39;;;;;;;7.10;2.23;;;;;;;;;;5002733;28;20185;-73
2023/07/21 06:41:46;;;;;;;5.43;2.40;;;;;;;;;;5000730;28;20213;-72
2023/07/21 06:45:10;;;;;;;4.40;2.17;;;;;;;;;;5000654;28;20178;-73
2023/07/21 06:48:46;;;;;;;6.33;2.20;;;;;;;;;;4999928;28;20198;-73
2023/07/21 06:52:05;;;;;;;4.07;1.87;;;;;;;;;;5016080;28;20217;-73
2023/07/21 06:55:09;;;;;;;2.70;2.00;;;;;;;;;;5004136;28;20194;-73
2023/07/21 06:58:13;;;;;;;5.53;1.93;;;;;;;;;;4992916;28;20174;-74
2023/07/21 07:01:17;;;;;;;4.17;2.27;;;;;;;;;;5004038;28;20209;-74
2023/07/21 07:04:22;;;;;;;4.90;2.00;;;;;;;;;;4992781;28;20201;-73
2023/07/21 07:07:27;;;;;;;3.80;2.03;;;;;;;;;;4992903;28;20173;-73
2023/07/21 07:10:32;;;;;;;4.57;2.20;;;;;;;;;;5003841;28;20185;-72
2023/07/21 07:13:36;;;;;;;9.23;2.73;;;;;;;;;;5015318;28;20202;-71
2023/07/21 07:16:43;;;;;;;6.90;2.83;;;;;;;;;;5006880;28;20197;-72
2023/07/21 07:19:47;;;;;;;5.83;2.23;;;;;;;;;;5003729;28;20181;-72
2023/07/21 07:22:53;;;;;;;6.20;2.30;;;;;;;;;;5000293;28;20684;-73
2023/07/21 07:25:57;;;;;;;3.03;2.23;;;;;;;;;;4973210;28;20198;-72
2023/07/21 07:29:03;;;;;;;3.00;2.20;;;;;;;;;;4984673;28;20190;-73
2023/07/21 07:32:08;;;;;;;6.83;2.30;;;;;;;;;;4983752;28;20574;-73
2023/07/21 07:35:12;;;;;;;5.33;2.37;;;;;;;;;;4996136;28;20208;-72
2023/07/21 07:38:30;;;;;;;8.80;2.57;;;;;;;;;;4995914;28;20181;-71
2023/07/21 07:41:34;;;;;;;4.93;2.33;;;;;;;;;;4995651;28;20224;-72
2023/07/21 07:44:39;;;;;;;8.67;2.50;;;;;;;;;;4996010;28;20532;-72
2023/07/21 07:47:44;;;;;;;5.87;2.37;;;;;;;;;;5000507;28;20202;-71
2023/07/21 07:50:51;;;;;;;6.40;2.07;;;;;;;;;;5014906;28;20226;-72
2023/07/21 07:53:57;;;;;;;3.17;2.13;;;;;;;;;;5003044;28;20205;-72
2023/07/21 07:57:01;;;;;;;3.37;2.03;;;;;;;;;;5014947;28;20190;-72
2023/07/21 08:00:08;;;;;;;4.72;2.20;;;;;;;;;;5003002;28;20185;-72
2023/07/21 08:03:16;;;;;;;4.10;2.42;;;;;;;;;;5015310;28;20181;-73
2023/07/21 08:06:22;;;;;;;3.28;2.03;;;;;;;;;;5014850;28;20542;-73
2023/07/21 08:09:26;;;;;;;2.42;1.73;;;;;;;;;;5014781;28;20180;-72
2023/07/21 08:12:30;;;;;;;4.28;1.95;;;;;;;;;;5014682;28;20557;-73
2023/07/21 08:15:34;;;;;;;3.90;2.03;;;;;;;;;;5014781;28;20182;-73
2023/07/21 08:18:38;;;;;;;2.40;1.90;;;;;;;;;;5002635;28;20199;-72
2023/07/21 08:21:42;;;;;;;2.63;1.88;;;;;;;;;;5014612;28;20686;-72
2023/07/21 08:24:46;;;;;;;6.55;1.85;;;;;;;;;;5014624;28;20524;-73
2023/07/21 08:27:50;;;;;;;4.22;2.22;;;;;;;;;;4991702;28;20650;-72
2023/07/21 08:30:54;;;;;;;5.35;2.08;;;;;;;;;;5002647;28;20217;-72
2023/07/21 08:33:58;;;;;;;5.10;1.90;;;;;;;;;;5014652;28;20199;-72
2023/07/21 08:37:03;;;;;;;2.88;1.50;;;;;;;;;;5014443;28;20183;-72
2023/07/21 08:40:08;;;;;;;2.45;1.90;;;;;;;;;;5014324;28;20182;-73
2023/07/21 08:43:12;;;;;;;2.78;1.70;;;;;;;;;;5002240;28;20669;-73
2023/07/21 08:46:17;;;;;;;5.22;2.40;;;;;;;;;;5014079;28;20200;-72
2023/07/21 08:49:21;;;;;;;4.55;1.60;;;;;;;;;;5014233;28;20174;-73
2023/07/21 08:52:25;;;;;;;2.88;1.75;;;;;;;;;;5002044;28;20215;-72
2023/07/21 08:55:29;;;;;;;5.57;1.90;;;;;;;;;;5002256;28;20269;-73
2023/07/21 08:58:34;;;;;;;3.72;1.65;;;;;;;;;;4990995;28;20178;-72
2023/07/21 09:01:39;;;;;;;6.30;1.95;;;;;;;;;;5014265;28;20674;-73
2023/07/21 09:04:44;;;;;;;7.22;2.03;;;;;;;;;;5014179;28;20183;-73
2023/07/21 09:07:48;;;;;;;9.02;1.90;;;;;;;;;;5001817;28;20671;-71
2023/07/21 09:10:56;;;;;;;3.97;1.85;;;;;;;;;;5013268;28;20220;-72
2023/07/21 09:14:00;;;;;;;6.10;2.10;;;;;;;;;;5013922;28;20204;-72
2023/07/21 09:17:06;;;;;;;3.03;2.03;;;;;;;;;;5013577;28;20202;-72
2023/07/21 09:20:11;;;;;;;6.60;2.20;;;;;;;;;;5013659;28;20192;-72
2023/07/21 09:23:18;;;;;;;3.50;2.00;;;;;;;;;;5013541;28;20654;-72
2023/07/21 09:26:23;;;;;;;9.98;2.38;;;;;;;;;;5013813;28;20514;-72
2023/07/21 09:29:27;;;;;;;3.15;1.75;;;;;;;;;;5013782;28;20178;-73
2023/07/21 09:32:40;;;;;;;4.82;1.90;;;;;;;;;;5013417;28;20709;-72
2023/07/21 09:35:44;;;;;;;4.18;2.10;;;;;;;;;;5001269;28;20205;-72
2023/07/21 09:38:50;;;;;;;2.28;1.88;;;;;;;;;;5001402;28;20178;-72
2023/07/21 09:41:54;;;;;;;5.00;2.10;;;;;;;;;;5001133;28;20217;-72
2023/07/21 09:44:58;;;;;;;2.88;1.55;;;;;;;;;;5001288;28;20183;-73
2023/07/21 09:48:03;;;;;;;4.90;1.88;;;;;;;;;;5013284;28;20189;-72
2023/07/21 09:51:07;;;;;;;3.50;1.80;;;;;;;;;;4999455;23;20237;-73
2023/07/21 09:54:18;;;;;;;3.95;2.15;;;;;;;;;;4993566;28;20208;-73
2023/07/21 09:57:23;;;;;;;6.78;2.10;;;;;;;;;;4992927;28;20184;-73
2023/07/21 10:00:28;;;;;;;8.45;1.85;;;;;;;;;;4992975;28;20537;-73
2023/07/21 10:03:33;;;;;;;6.75;2.33;;;;;;;;;;4993804;28;20309;-73
2023/07/21 10:06:37;;;;;;;4.80;1.70;;;;;;;;;;5004242;28;20627;-73
2023/07/21 10:09:47;;;;;;;3.45;1.70;;;;;;;;;;4993589;28;20189;-72
2023/07/21 10:12:52;;;;;;;3.90;2.00;;;;;;;;;;5003863;28;20218;-73
2023/07/21 10:16:05;;;;;;;4.70;2.33;;;;;;;;;;4993791;28;20630;-73
2023/07/21 10:19:11;;;;;;;4.05;2.15;;;;;;;;;;4993490;28;20191;-72
2023/07/21 10:22:24;;;;;;;7.03;1.95;;;;;;;;;;4993420;28;20220;-72
2023/07/21 10:25:29;;;;;;;2.45;1.80;;;;;;;;;;4997774;28;20179;-72
2023/07/21 10:28:42;;;;;;;2.20;1.90;;;;;;;;;;4997832;28;20190;-73
2023/07/21 10:31:51;;;;;;;5.47;2.22;;;;;;;;;;4997135;28;20214;-72
2023/07/21 10:34:56;;;;;;;4.25;2.13;;;;;;;;;;4997673;28;20657;-72
2023/07/21 10:38:15;;;;;;;4.70;2.08;;;;;;;;;;4997228;28;20179;-73
2023/07/21 10:41:19;;;;;;;3.88;1.90;;;;;;;;;;4996563;28;20685;-73
2023/07/21 10:44:30;;;;;;;4.57;1.85;;;;;;;;;;4997323;28;20178;-73
2023/07/21 10:47:35;;;;;;;6.10;1.90;;;;;;;;;;4997219;28;20179;-73
2023/07/21 10:50:40;;;;;;;5.47;1.95;;;;;;;;;;4997053;28;20198;-73
2023/07/21 10:53:44;;;;;;;3.53;2.10;;;;;;;;;;4985076;28;20210;-73
2023/07/21 10:56:51;;;;;;;6.65;1.70;;;;;;;;;;4996768;28;20182;-73
2023/07/21 10:59:55;;;;;;;5.55;1.50;;;;;;;;;;4996439;28;20174;-73
2023/07/21 11:02:59;;;;;;;2.50;2.00;;;;;;;;;;4996566;28;20174;-73
2023/07/21 11:06:03;;;;;;;4.90;2.00;;;;;;;;;;4996612;28;20182;-73
2023/07/21 11:09:11;;;;;;;4.38;1.90;;;;;;;;;;4996555;28;20182;-73
2023/07/21 11:12:15;;;;;;;3.30;2.00;;;;;;;;;;4996045;28;20685;-73
2023/07/21 11:15:19;;;;;;;3.60;2.08;;;;;;;;;;4997129;28;20222;-73
2023/07/21 11:18:23;;;;;;;7.55;2.20;;;;;;;;;;4996341;28;20207;-73
2023/07/21 11:21:28;;;;;;;6.65;2.00;;;;;;;;;;4996222;28;20222;-73
2023/07/21 11:24:33;;;;;;;3.22;1.98;;;;;;;;;;4996644;28;20657;-73
2023/07/21 11:27:48;;;;;;;2.90;2.30;;;;;;;;;;4996479;28;20179;-73
2023/07/21 11:30:52;;;;;;;3.85;1.60;;;;;;;;;;4995838;28;20222;-73
2023/07/21 11:33:56;;;;;;;3.70;1.70;;;;;;;;;;4995825;28;20214;-73
2023/07/21 11:37:00;;;;;;;4.10;1.98;;;;;;;;;;4996817;28;20178;-73
2023/07/21 11:40:08;;;;;;;7.43;2.22;;;;;;;;;;4996068;28;20186;-73
2023/07/21 11:43:13;;;;;;;7.70;1.90;;;;;;;;;;4996268;28;20178;-73
2023/07/21 11:46:23;;;;;;;2.50;1.77;;;;;;;;;;4995077;28;20175;-73
2023/07/21 11:49:28;;;;;;;1.52;1.30;;;;;;;;;;4996152;28;20183;-73
2023/07/21 11:52:36;;;;;;;4.28;1.75;;;;;;;;;;4995763;28;20591;-73
2023/07/21 11:55:40;;;;;;;2.85;1.90;;;;;;;;;;4995635;28;20211;-73
2023/07/21 11:58:45;;;;;;;3.15;1.80;;;;;;;;;;4996087;28;20194;-73
2023/07/21 12:01:49;;;;;;;4.13;1.70;;;;;;;;;;4995527;28;20222;-73
2023/07/21 12:04:54;;;;;;;2.33;1.70;;;;;;;;;;4996322;28;20183;-73
2023/07/21 12:07:59;;;;;;;5.15;1.80;;;;;;;;;;4995516;28;20187;-73
2023/07/21 12:11:03;;;;;;;3.28;1.95;;;;;;;;;;4995512;28;20214;-73
2023/07/21 12:14:07;;;;;;;2.97;1.85;;;;;;;;;;4994555;28;20214;-73
2023/07/21 12:17:14;;;;;;;4.60;1.90;;;;;;;;;;4995392;28;20182;-73
2023/07/21 12:20:18;;;;;;;2.38;1.67;;;;;;;;;;4994684;28;20178;-73
2023/07/21 12:23:22;;;;;;;3.33;1.77;;;;;;;;;;4995405;28;20182;-73
2023/07/21 12:26:27;;;;;;;5.80;1.98;;;;;;;;;;4995275;28;20175;-73
2023/07/21 12:29:31;;;;;;;2.67;1.77;;;;;;;;;;4994555;28;20182;-73
2023/07/21 12:32:36;;;;;;;4.05;1.70;;;;;;;;;;4994897;28;20222;-73
2023/07/21 12:35:40;;;;;;;5.00;1.95;;;;;;;;;;4995132;28;20214;-73
2023/07/21 12:38:44;;;;;;;5.05;2.00;;;;;;;;;;4994618;28;20191;-73
2023/07/21 12:41:48;;;;;;;2.60;1.73;;;;;;;;;;4995099;28;20218;-73
2023/07/21 12:44:52;;;;;;;3.22;1.98;;;;;;;;;;4994505;28;20175;-72
2023/07/21 12:47:57;;;;;;;4.38;1.83;;;;;;;;;;4994627;28;20182;-72
2023/07/21 12:51:01;;;;;;;3.10;1.90;;;;;;;;;;4994555;28;20230;-73
2023/07/21 12:54:05;;;;;;;4.63;2.17;;;;;;;;;;5005309;28;20206;-72
2023/07/21 12:57:09;;;;;;;3.40;1.90;;;;;;;;;;4994835;28;20526;-72
2023/07/21 13:00:14;;;;;;;3.78;1.70;;;;;;;;;;4995049;28;20190;-72
2023/07/21 13:03:18;;;;;;;4.55;1.58;;;;;;;;;;4994703;28;20526;-72
2023/07/21 13:06:22;;;;;;;3.00;1.80;;;;;;;;;;4994821;28;20183;-73
2023/07/21 13:09:26;;;;;;;2.35;1.80;;;;;;;;;;4994516;28;20179;-73
2023/07/21 13:12:30;;;;;;;3.47;1.63;;;;;;;;;;4994220;28;20222;-73
2023/07/21 13:15:35;;;;;;;5.80;1.65;;;;;;;;;;4993328;28;20210;-73
2023/07/21 13:18:39;;;;;;;6.18;2.17;;;;;;;;;;4993724;28;20182;-73
2023/07/21 13:21:44;;;;;;;2.40;1.77;;;;;;;;;;4993457;28;20289;-73
2023/07/21 13:24:48;;;;;;;9.43;2.03;;;;;;;;;;4994201;28;20194;-72
2023/07/21 13:27:52;;;;;;;2.30;1.55;;;;;;;;;;4994364;28;20175;-73
2023/07/21 13:30:56;;;;;;;3.05;1.67;;;;;;;;;;4993925;28;20214;-73
2023/07/21 13:34:02;;;;;;;5.30;1.90;;;;;;;;;;4994038;28;20178;-73
2023/07/21 13:37:06;;;;;;;6.50;1.63;;;;;;;;;;4994274;28;20179;-73
2023/07/21 13:40:10;;;;;;;4.05;1.58;;;;;;;;;;4993138;28;20182;-73
2023/07/21 13:43:14;;;;;;;3.92;1.55;;;;;;;;;;4993879;28;20182;-73
2023/07/21 13:46:21;;;;;;;4.80;1.70;;;;;;;;;;4993252;28;20178;-72
2023/07/21 13:49:26;;;;;;;3.22;1.33;;;;;;;;;;4994028;28;20182;-72
2023/07/21 13:52:31;;;;;;;3.85;1.58;;;;;;;;;;4993198;28;20214;-72
2023/07/21 13:55:35;;;;;;;4.32;1.60;;;;;;;;;;4993650;28;20214;-72
2023/07/21 13:58:39;;;;;;;3.60;1.10;;;;;;;;;;5000311;28;20174;-72
2023/07/21 14:01:43;;;;;;;4.10;1.35;;;;;;;;;;5000117;28;20214;-73
2023/07/21 14:04:48;;;;;;;3.03;1.25;;;;;;;;;;5011498;28;20174;-72
2023/07/21 14:07:52;;;;;;;2.13;1.45;;;;;;;;;;5000725;28;20178;-72
2023/07/21 14:10:57;;;;;;;2.67;1.13;;;;;;;;;;5000465;28;20214;-73
2023/07/21 14:14:02;;;;;;;1.98;1.30;;;;;;;;;;5000497;28;20518;-73
2023/07/21 14:17:05;;;;;;;4.18;1.65;;;;;;;;;;4999440;28;20173;-73
2023/07/21 14:20:10;;;;;;;3.33;1.83;;;;;;;;;;4999980;28;20186;-73
2023/07/21 14:23:14;;;;;;;2.05;1.67;;;;;;;;;;5000121;28;20198;-73
2023/07/21 14:26:19;;;;;;;3.13;1.60;;;;;;;;;;4999942;28;20194;-73
2023/07/21 14:29:23;;;;;;;3.40;1.48;;;;;;;;;;4999668;28;20202;-73
2023/07/21 14:32:27;;;;;;;3.17;1.40;;;;;;;;;;4999903;28;20218;-73
2023/07/21 14:35:31;;;;;;;2.08;1.45;;;;;;;;;;4999452;28;20669;-73
2023/07/21 14:38:36;;;;;;;4.47;1.45;;;;;;;;;;4999984;28;20178;-72
2023/07/21 14:41:40;;;;;;;3.38;1.50;;;;;;;;;;4999829;28;20213;-73
2023/07/21 14:44:44;;;;;;;5.43;1.50;;;;;;;;;;4999864;28;20184;-73
2023/07/21 14:47:49;;;;;;;5.05;1.60;;;;;;;;;;4998824;28;20201;-72
2023/07/21 14:50:53;;;;;;;4.30;1.50;;;;;;;;;;4999453;28;20228;-73
2023/07/21 14:53:57;;;;;;;6.20;1.50;;;;;;;;;;4999984;28;20186;-73
2023/07/21 14:57:02;;;;;;;2.38;1.60;;;;;;;;;;4999580;28;20628;-73
2023/07/21 15:00:16;;;;;;;4.40;1.48;;;;;;;;;;5010914;28;20183;-72
2023/07/21 15:03:21;;;;;;;2.92;1.48;;;;;;;;;;5000078;28;20184;-73
2023/07/21 15:06:25;;;;;;;2.67;1.75;;;;;;;;;;4999827;28;20636;-73
2023/07/21 15:09:29;;;;;;;3.63;1.63;;;;;;;;;;4996946;28;20190;-72
2023/07/21 15:12:33;;;;;;;3.90;1.80;;;;;;;;;;4995837;28;20217;-72
2023/07/21 15:15:38;;;;;;;3.67;1.60;;;;;;;;;;4996685;28;20213;-73
2023/07/21 15:18:43;;;;;;;3.90;2.00;;;;;;;;;;4996485;28;20198;-72
2023/07/21 15:21:47;;;;;;;3.60;2.08;;;;;;;;;;4995321;28;20285;-72
2023/07/21 15:24:51;;;;;;;3.90;1.70;;;;;;;;;;4996646;28;20175;-72
2023/07/21 15:27:55;;;;;;;4.67;2.37;;;;;;;;;;4995969;28;20632;-72
2023/07/21 15:31:03;;;;;;;5.53;2.00;;;;;;;;;;4996136;28;20216;-72
2023/07/21 15:34:08;;;;;;;2.70;2.00;;;;;;;;;;4996657;28;20181;-72
2023/07/21 15:37:12;;;;;;;5.77;2.00;;;;;;;;;;4996359;28;20179;-72
2023/07/21 15:40:18;;;;;;;6.00;2.20;;;;;;;;;;4995299;28;20536;-72
2023/07/21 15:43:22;;;;;;;4.50;2.23;;;;;;;;;;4996265;28;20182;-72
2023/07/21 15:46:27;;;;;;;2.60;2.13;;;;;;;;;;4996141;28;20175;-72
2023/07/21 15:49:31;;;;;;;3.93;1.93;;;;;;;;;;4995926;28;20183;-72
2023/07/21 15:52:35;;;;;;;7.60;2.20;;;;;;;;;;5021649;22;20222;-74
2023/07/21 15:55:39;;;;;;;2.80;2.10;;;;;;;;;;5015543;28;20209;-73
2023/07/21 15:58:43;;;;;;;4.67;2.13;;;;;;;;;;5003034;28;20198;-74
2023/07/21 16:01:48;;;;;;;2.13;1.70;;;;;;;;;;5015058;28;20560;-73
2023/07/21 16:04:52;;;;;;;4.43;2.40;;;;;;;;;;4992530;28;20182;-74
2023/07/21 16:07:57;;;;;;;9.40;2.57;;;;;;;;;;5015192;28;20186;-74
2023/07/21 16:11:02;;;;;;;5.60;2.30;;;;;;;;;;5003287;28;20221;-74
2023/07/21 16:14:06;;;;;;;3.53;2.30;;;;;;;;;;5015128;28;20521;-73
2023/07/21 16:17:10;;;;;;;5.77;2.20;;;;;;;;;;5002957;28;20186;-73
2023/07/21 16:20:15;;;;;;;3.30;2.13;;;;;;;;;;5001847;28;20640;-73
2023/07/21 16:23:19;;;;;;;3.70;2.17;;;;;;;;;;5002727;28;20659;-73
2023/07/21 16:26:23;;;;;;;2.67;1.93;;;;;;;;;;5014585;28;20193;-73
2023/07/21 16:29:27;;;;;;;3.33;1.97;;;;;;;;;;5014814;28;20177;-74
2023/07/21 16:32:31;;;;;;;2.60;2.00;;;;;;;;;;5014700;28;20221;-73
2023/07/21 16:35:35;;;;;;;2.53;1.97;;;;;;;;;;5015133;28;20205;-73
2023/07/21 16:38:40;;;;;;;2.47;1.93;;;;;;;;;;5002471;28;20178;-73
2023/07/21 16:41:44;;;;;;;2.63;1.90;;;;;;;;;;5002553;28;20217;-73
2023/07/21 16:44:48;;;;;;;3.10;1.83;;;;;;;;;;5014542;28;20177;-74
2023/07/21 16:47:52;;;;;;;3.80;1.80;;;;;;;;;;5002189;28;20518;-73
2023/07/21 16:50:56;;;;;;;2.17;1.80;;;;;;;;;;5002381;28;20711;-73
2023/07/21 16:54:01;;;;;;;2.77;1.83;;;;;;;;;;5002244;28;20173;-74
2023/07/21 16:57:05;;;;;;;2.93;1.93;;;;;;;;;;5014533;28;20202;-74
2023/07/21 17:00:11;;;;;;;3.43;2.10;;;;;;;;;;5014963;28;20616;-74
2023/07/21 17:03:16;;;;;;;3.03;2.03;;;;;;;;;;5014231;28;20182;-74
2023/07/21 17:06:21;;;;;;;4.07;2.30;;;;;;;;;;5014132;28;20513;-74
2023/07/21 17:09:25;;;;;;;3.20;1.80;;;;;;;;;;5002381;28;20181;-73
2023/07/21 17:12:30;;;;;;;4.50;2.03;;;;;;;;;;5001687;28;20218;-73
2023/07/21 17:15:34;;;;;;;5.17;2.10;;;;;;;;;;5002065;28;20656;-73
2023/07/21 17:18:38;;;;;;;2.20;1.83;;;;;;;;;;4990711;28;20185;-74
2023/07/21 17:21:43;;;;;;;2.67;1.97;;;;;;;;;;5001594;28;20284;-73
2023/07/21 17:24:53;;;;;;;2.50;1.80;;;;;;;;;;5014117;28;20173;-73
2023/07/21 17:27:57;;;;;;;3.97;1.60;;;;;;;;;;5013793;28;20177;-73
2023/07/21 17:31:03;;;;;;;3.93;1.63;;;;;;;;;;5013435;28;20635;-73
2023/07/21 17:34:07;;;;;;;2.00;1.70;;;;;;;;;;5014096;28;20517;-73
2023/07/21 17:37:11;;;;;;;3.97;1.57;;;;;;;;;;5013354;28;20681;-73
2023/07/21 17:40:16;;;;;;;5.90;1.97;;;;;;;;;;5013385;28;20197;-73
2023/07/21 17:43:20;;;;;;;4.50;1.60;;;;;;;;;;5013730;28;20186;-73
2023/07/21 17:46:24;;;;;;;6.80;2.10;;;;;;;;;;5013339;28;20173;-73
2023/07/21 17:49:28;;;;;;;5.13;1.60;;;;;;;;;;5001738;28;20173;-73
2023/07/21 17:52:32;;;;;;;4.63;1.70;;;;;;;;;;5013453;28;20723;-73
2023/07/21 17:55:36;;;;;;;4.90;1.70;;;;;;;;;;5001346;28;20537;-73
2023/07/21 17:58:40;;;;;;;4.37;1.53;;;;;;;;;;5013721;28;20174;-73
2023/07/21 18:01:45;;;;;;;7.43;1.67;;;;;;;;;;5013575;28;20213;-73
2023/07/21 18:04:49;;;;;;;4.57;1.53;;;;;;;;;;5001608;28;20181;-73
2023/07/21 18:07:53;;;;;;;2.67;1.57;;;;;;;;;;5001845;28;20181;-73
2023/07/21 18:10:57;;;;;;;3.07;1.37;;;;;;;;;;5001360;28;20205;-73
2023/07/21 18:14:01;;;;;;;6.13;1.83;;;;;;;;;;5013075;28;20178;-73
2023/07/21 18:17:06;;;;;;;6.03;1.70;;;;;;;;;;5013066;28;20205;-73
2023/07/21 18:20:10;;;;;;;3.20;1.70;;;;;;;;;;5013311;28;20182;-73
2023/07/21 18:23:14;;;;;;;6.63;1.67;;;;;;;;;;5013007;28;20186;-73
2023/07/21 18:26:23;;;;;;;2.60;1.40;;;;;;;;;;5013142;28;20178;-73
2023/07/21 18:29:27;;;;;;;3.33;1.70;;;;;;;;;;5000819;28;20193;-73
2023/07/21 18:32:31;;;;;;;2.93;1.80;;;;;;;;;;5001194;28;20700;-73
2023/07/21 18:35:35;;;;;;;6.93;1.90;;;;;;;;;;4990646;28;20181;-73